Time,TemperatureF,DewpointF,PressureIn,WindDirection,WindDirectionDegrees,WindSpeedMPH,WindSpeedGustMPH,Humidity,HourlyPrecipIn,Conditions,Clouds,dailyrainin,SoftwareType,DateUTC
2013-01-22 00:02:00,32.0,3.0,30.18,WSW,255,12.0,25.0,29,0.00,,,0.00,,2013-01-22 07:02:00,
2013-01-22 00:12:00,32.0,3.0,30.18,WSW,255,12.0,25.0,29,0.00,,,0.00,,2013-01-22 07:12:00,
2013-01-22 00:22:00,32.0,3.0,30.18,West,277,6.0,17.0,29,0.00,,,0.00,,2013-01-22 07:22:00,
2013-01-22 00:32:00,32.0,3.0,30.18,WNW,295,5.0,15.0,29,0.00,,,0.00,,2013-01-22 07:32:00,
2013-01-22 00:42:00,32.0,3.0,30.18,WNW,295,5.0,15.0,29,0.00,,,0.00,,2013-01-22 07:42:00,
2013-01-22 00:53:00,32.0,3.0,30.17,WNW,294,9.0,17.0,29,0.00,,,0.00,,2013-01-22 07:53:00,
2013-01-22 01:02:00,33.0,3.0,30.17,WNW,292,11.0,21.0,28,0.00,,,0.00,,2013-01-22 08:02:00,
2013-01-22 01:12:00,33.0,3.0,30.17,WNW,292,11.0,21.0,28,0.00,,,0.00,,2013-01-22 08:12:00,
2013-01-22 01:22:00,33.0,3.0,30.18,SW,226,9.0,20.0,28,0.00,,,0.00,,2013-01-22 08:22:00,
2013-01-22 01:32:00,33.0,3.0,30.19,SSW,213,6.0,14.0,28,0.00,,,0.00,,2013-01-22 08:32:00,
2013-01-22 01:42:00,33.0,3.0,30.19,SSW,213,6.0,14.0,28,0.00,,,0.00,,2013-01-22 08:42:00,
2013-01-22 01:52:00,32.0,3.0,30.17,West,281,10.0,23.0,29,0.00,,,0.00,,2013-01-22 08:52:00,
2013-01-22 02:02:00,32.0,4.0,30.17,WSW,244,19.0,29.0,30,0.00,,,0.00,,2013-01-22 09:02:00,
2013-01-22 02:12:00,32.0,4.0,30.17,WSW,244,19.0,29.0,30,0.00,,,0.00,,2013-01-22 09:12:00,
2013-01-22 02:22:00,30.0,3.0,30.18,WSW,256,6.0,21.0,31,0.00,,,0.00,,2013-01-22 09:22:00,
2013-01-22 02:32:00,30.0,3.0,30.18,WSW,256,6.0,21.0,31,0.00,,,0.00,,2013-01-22 09:32:00,
2013-01-22 02:42:00,30.0,3.0,30.18,WSW,256,6.0,21.0,31,0.00,,,0.00,,2013-01-22 09:42:00,
2013-01-22 02:52:00,29.0,4.0,30.17,SSW,198,7.0,12.0,33,0.00,,,0.00,,2013-01-22 09:52:00,
2013-01-22 03:02:00,29.0,4.0,30.16,SSW,205,6.0,13.0,33,0.00,,,0.00,,2013-01-22 10:02:00,
2013-01-22 03:12:00,29.0,4.0,30.16,SSW,205,6.0,13.0,33,0.00,,,0.00,,2013-01-22 10:12:00,
2013-01-22 03:22:00,31.0,5.0,30.17,SSW,209,5.0,18.0,32,0.00,,,0.00,,2013-01-22 10:22:00,
2013-01-22 03:32:00,31.0,4.0,30.18,WSW,238,2.0,15.0,31,0.00,,,0.00,,2013-01-22 10:32:00,
2013-01-22 03:42:00,31.0,4.0,30.18,WSW,238,2.0,15.0,31,0.00,,,0.00,,2013-01-22 10:42:00,
2013-01-22 03:52:00,30.0,3.0,30.17,South,188,4.0,14.0,31,0.00,,,0.00,,2013-01-22 10:52:00,
2013-01-22 04:02:00,31.0,4.0,30.17,SW,236,5.0,13.0,31,0.00,,,0.00,,2013-01-22 11:02:00,
2013-01-22 04:12:00,31.0,4.0,30.17,SW,236,5.0,13.0,31,0.00,,,0.00,,2013-01-22 11:12:00,
2013-01-22 04:22:00,31.0,3.0,30.17,SSE,161,0.0,16.0,30,0.00,,,0.00,,2013-01-22 11:22:00,
2013-01-22 04:33:00,31.0,4.0,30.18,SSW,194,2.0,11.0,31,0.00,,,0.00,,2013-01-22 11:33:00,
2013-01-22 04:42:00,31.0,4.0,30.18,SSW,194,2.0,11.0,31,0.00,,,0.00,,2013-01-22 11:42:00,
2013-01-22 04:53:00,29.0,3.0,30.17,South,186,0.0,4.0,32,0.00,,,0.00,,2013-01-22 11:53:00,
2013-01-22 05:03:00,31.0,4.0,30.19,WSW,245,6.0,15.0,31,0.00,,,0.00,,2013-01-22 12:03:00,
2013-01-22 05:12:00,31.0,4.0,30.19,WSW,245,6.0,15.0,31,0.00,,,0.00,,2013-01-22 12:12:00,
2013-01-22 05:23:00,30.0,4.0,30.19,WSW,242,8.0,14.0,32,0.00,,,0.00,,2013-01-22 12:23:00,
2013-01-22 05:33:00,30.0,4.0,30.19,WSW,242,8.0,14.0,32,0.00,,,0.00,,2013-01-22 12:33:00,
2013-01-22 05:43:00,31.0,4.0,30.19,WNW,292,12.0,24.0,31,0.00,,,0.00,,2013-01-22 12:43:00,
2013-01-22 05:53:00,31.0,4.0,30.19,WSW,243,13.0,26.0,31,0.00,,,0.00,,2013-01-22 12:53:00,
2013-01-22 06:03:00,31.0,4.0,30.19,SW,225,6.0,15.0,31,0.00,,,0.00,,2013-01-22 13:03:00,
2013-01-22 06:13:00,31.0,4.0,30.19,SW,225,6.0,15.0,31,0.00,,,0.00,,2013-01-22 13:13:00,
2013-01-22 06:23:00,30.0,3.0,30.19,WSW,249,8.0,18.0,31,0.00,,,0.00,,2013-01-22 13:23:00,
2013-01-22 06:33:00,30.0,3.0,30.19,South,190,6.0,13.0,31,0.00,,,0.00,,2013-01-22 13:33:00,
2013-01-22 06:43:00,30.0,3.0,30.19,South,190,6.0,13.0,31,0.00,,,0.00,,2013-01-22 13:43:00,
2013-01-22 06:53:00,29.0,3.0,30.19,WSW,237,6.0,16.0,32,0.00,,,0.00,,2013-01-22 13:53:00,
2013-01-22 07:03:00,30.0,3.0,30.19,West,270,8.0,16.0,31,0.00,,,0.00,,2013-01-22 14:03:00,
2013-01-22 07:12:00,30.0,3.0,30.19,West,270,8.0,16.0,31,0.00,,,0.00,,2013-01-22 14:12:00,
2013-01-22 07:23:00,30.0,2.0,30.19,West,268,8.0,17.0,30,0.00,,,0.00,,2013-01-22 14:23:00,
2013-01-22 07:33:00,31.0,3.0,30.18,WNW,292,14.0,20.0,29,0.00,,,0.00,,2013-01-22 14:33:00,
2013-01-22 07:43:00,31.0,3.0,30.18,WNW,292,14.0,20.0,29,0.00,,,0.00,,2013-01-22 14:43:00,
2013-01-22 07:54:00,31.0,3.0,30.18,WSW,256,7.0,20.0,29,0.00,,,0.00,,2013-01-22 14:54:00,
2013-01-22 08:03:00,32.0,3.0,30.18,West,279,11.0,20.0,28,0.00,,,0.00,,2013-01-22 15:03:00,
2013-01-22 08:12:00,32.0,3.0,30.18,West,279,11.0,20.0,28,0.00,,,0.00,,2013-01-22 15:12:00,
2013-01-22 08:23:00,33.0,3.0,30.18,West,261,17.0,28.0,27,0.00,,,0.00,,2013-01-22 15:23:00,
2013-01-22 08:33:00,34.0,2.0,30.17,SSW,213,18.0,35.0,25,0.00,,,0.00,,2013-01-22 15:33:00,
2013-01-22 08:43:00,34.0,2.0,30.17,SSW,213,18.0,35.0,25,0.00,,,0.00,,2013-01-22 15:43:00,
2013-01-22 08:53:00,35.0,3.0,30.18,WSW,254,17.0,31.0,25,0.00,,,0.00,,2013-01-22 15:53:00,
2013-01-22 09:03:00,36.0,3.0,30.18,WSW,255,18.0,40.0,24,0.00,,,0.00,,2013-01-22 16:03:00,
2013-01-22 09:13:00,36.0,3.0,30.18,WSW,255,18.0,40.0,24,0.00,,,0.00,,2013-01-22 16:13:00,
2013-01-22 09:23:00,36.0,3.0,30.18,West,277,20.0,36.0,24,0.00,,,0.00,,2013-01-22 16:23:00,
2013-01-22 09:33:00,37.0,3.0,30.19,SSW,209,20.0,32.0,23,0.00,,,0.00,,2013-01-22 16:33:00,
2013-01-22 09:43:00,37.0,3.0,30.19,SSW,209,20.0,32.0,23,0.00,,,0.00,,2013-01-22 16:43:00,
2013-01-22 09:54:00,37.0,4.0,30.19,West,261,12.0,28.0,24,0.00,,,0.00,,2013-01-22 16:54:00,
2013-01-22 10:03:00,38.0,4.0,30.19,West,273,11.0,26.0,23,0.00,,,0.00,,2013-01-22 17:03:00,
2013-01-22 10:12:00,38.0,4.0,30.19,West,273,11.0,26.0,23,0.00,,,0.00,,2013-01-22 17:12:00,
2013-01-22 10:23:00,39.0,3.0,30.20,SW,220,3.0,20.0,22,0.00,,,0.00,,2013-01-22 17:23:00,
2013-01-22 10:33:00,40.0,4.0,30.22,NW,307,4.0,13.0,22,0.00,,,0.00,,2013-01-22 17:33:00,
2013-01-22 10:43:00,40.0,4.0,30.22,NW,307,4.0,13.0,22,0.00,,,0.00,,2013-01-22 17:43:00,
2013-01-22 10:53:00,42.0,5.0,30.22,SE,133,1.0,7.0,21,0.00,,,0.00,,2013-01-22 17:53:00,
2013-01-22 11:03:00,42.0,4.0,30.22,SW,227,5.0,15.0,20,0.00,,,0.00,,2013-01-22 18:03:00,
2013-01-22 11:12:00,42.0,4.0,30.22,SW,227,5.0,15.0,20,0.00,,,0.00,,2013-01-22 18:12:00,
2013-01-22 11:23:00,43.0,4.0,30.23,SSW,195,4.0,17.0,19,0.00,,,0.00,,2013-01-22 18:23:00,
2013-01-22 11:33:00,43.0,2.0,30.22,West,263,8.0,16.0,18,0.00,,,0.00,,2013-01-22 18:33:00,
2013-01-22 11:43:00,43.0,2.0,30.22,West,263,8.0,16.0,18,0.00,,,0.00,,2013-01-22 18:43:00,
2013-01-22 11:54:00,44.0,3.0,30.22,South,175,9.0,19.0,18,0.00,,,0.00,,2013-01-22 18:54:00,
2013-01-22 12:03:00,44.0,3.0,30.20,SSW,195,12.0,25.0,18,0.00,,,0.00,,2013-01-22 19:03:00,
2013-01-22 12:13:00,44.0,3.0,30.20,SSW,195,12.0,25.0,18,0.00,,,0.00,,2013-01-22 19:13:00,
2013-01-22 12:23:00,44.0,3.0,30.20,South,178,13.0,25.0,18,0.00,,,0.00,,2013-01-22 19:23:00,
2013-01-22 12:33:00,45.0,3.0,30.18,NNE,17,8.0,26.0,17,0.00,,,0.00,,2013-01-22 19:33:00,
2013-01-22 12:43:00,45.0,3.0,30.18,NNE,17,8.0,26.0,17,0.00,,,0.00,,2013-01-22 19:43:00,
2013-01-22 12:54:00,45.0,3.0,30.17,NNW,340,6.0,25.0,17,0.00,,,0.00,,2013-01-22 19:54:00,
2013-01-22 13:03:00,46.0,2.0,30.15,NW,325,9.0,26.0,16,0.00,,,0.00,,2013-01-22 20:03:00,
2013-01-22 13:12:00,46.0,2.0,30.15,NW,325,9.0,26.0,16,0.00,,,0.00,,2013-01-22 20:12:00,
2013-01-22 13:23:00,46.0,2.0,30.17,SSE,156,6.0,23.0,16,0.00,,,0.00,,2013-01-22 20:23:00,
2013-01-22 13:33:00,46.0,2.0,30.19,North,11,7.0,19.0,16,0.00,,,0.00,,2013-01-22 20:33:00,
2013-01-22 13:43:00,46.0,2.0,30.19,North,11,7.0,19.0,16,0.00,,,0.00,,2013-01-22 20:43:00,
2013-01-22 13:53:00,47.0,2.0,30.19,NNE,24,11.0,21.0,15,0.00,,,0.00,,2013-01-22 20:53:00,
2013-01-22 14:03:00,47.0,3.0,30.20,West,271,10.0,22.0,16,0.00,,,0.00,,2013-01-22 21:03:00,
2013-01-22 14:13:00,47.0,3.0,30.20,West,271,10.0,22.0,16,0.00,,,0.00,,2013-01-22 21:13:00,
2013-01-22 14:22:00,47.0,2.0,30.20,NNW,345,7.0,16.0,15,0.00,,,0.00,,2013-01-22 21:22:00,
2013-01-22 14:33:00,47.0,2.0,30.19,NE,48,5.0,12.0,15,0.00,,,0.00,,2013-01-22 21:33:00,
2013-01-22 14:43:00,47.0,2.0,30.19,NE,48,5.0,12.0,15,0.00,,,0.00,,2013-01-22 21:43:00,
2013-01-22 14:53:00,47.0,4.0,30.20,SSE,148,1.0,15.0,17,0.00,,,0.00,,2013-01-22 21:53:00,
2013-01-22 15:02:00,48.0,3.0,30.21,SSW,198,4.0,10.0,15,0.00,,,0.00,,2013-01-22 22:02:00,
2013-01-22 15:12:00,48.0,3.0,30.21,SSW,198,4.0,10.0,15,0.00,,,0.00,,2013-01-22 22:12:00,
2013-01-22 15:22:00,47.0,2.0,30.21,WNW,284,3.0,17.0,15,0.00,,,0.00,,2013-01-22 22:22:00,
2013-01-22 15:32:00,47.0,2.0,30.21,WNW,284,3.0,17.0,15,0.00,,,0.00,,2013-01-22 22:32:00,
2013-01-22 15:43:00,47.0,2.0,30.21,WSW,240,8.0,19.0,15,0.00,,,0.00,,2013-01-22 22:43:00,
2013-01-22 15:53:00,46.0,2.0,30.22,WSW,249,10.0,22.0,16,0.00,,,0.00,,2013-01-22 22:53:00,
2013-01-22 16:02:00,46.0,4.0,30.21,West,268,11.0,21.0,17,0.00,,,0.00,,2013-01-22 23:02:00,
2013-01-22 16:12:00,46.0,4.0,30.21,West,268,11.0,21.0,17,0.00,,,0.00,,2013-01-22 23:12:00,
2013-01-22 16:23:00,45.0,3.0,30.20,SW,227,16.0,23.0,17,0.00,,,0.00,,2013-01-22 23:23:00,
2013-01-22 16:33:00,43.0,2.0,30.19,WSW,252,12.0,20.0,18,0.00,,,0.00,,2013-01-22 23:33:00,
2013-01-22 16:43:00,43.0,2.0,30.19,WSW,252,12.0,20.0,18,0.00,,,0.00,,2013-01-22 23:43:00,
2013-01-22 16:53:00,42.0,2.0,30.20,West,261,10.0,19.0,18,0.00,,,0.00,,2013-01-22 23:53:00,
2013-01-22 17:03:00,41.0,4.0,30.19,WSW,241,9.0,17.0,21,0.00,,,0.00,,2013-01-23 00:03:00,
2013-01-22 17:12:00,41.0,4.0,30.19,WSW,241,9.0,17.0,21,0.00,,,0.00,,2013-01-23 00:12:00,
2013-01-22 17:22:00,41.0,2.0,30.20,WSW,248,11.0,22.0,19,0.00,,,0.00,,2013-01-23 00:22:00,
2013-01-22 17:33:00,40.0,2.0,30.22,SSW,203,9.0,16.0,20,0.00,,,0.00,,2013-01-23 00:33:00,
2013-01-22 17:43:00,40.0,2.0,30.22,SSW,203,9.0,16.0,20,0.00,,,0.00,,2013-01-23 00:43:00,
2013-01-22 17:52:00,39.0,2.0,30.25,SSW,202,1.0,11.0,21,0.00,,,0.00,,2013-01-23 00:52:00,
2013-01-22 18:03:00,39.0,1.0,30.25,SSE,150,2.0,16.0,20,0.00,,,0.00,,2013-01-23 01:03:00,
2013-01-22 18:13:00,39.0,1.0,30.25,SSE,150,2.0,16.0,20,0.00,,,0.00,,2013-01-23 01:13:00,
2013-01-22 18:22:00,38.0,1.0,30.24,SSE,155,0.0,4.0,20,0.00,,,0.00,,2013-01-23 01:22:00,
2013-01-22 18:33:00,38.0,-1.0,30.24,WNW,289,8.0,13.0,19,0.00,,,0.00,,2013-01-23 01:33:00,
2013-01-22 18:43:00,38.0,-1.0,30.24,WNW,289,8.0,13.0,19,0.00,,,0.00,,2013-01-23 01:43:00,
2013-01-22 18:53:00,39.0,-2.0,30.25,NNW,332,6.0,14.0,17,0.00,,,0.00,,2013-01-23 01:53:00,
2013-01-22 19:03:00,39.0,-1.0,30.25,West,267,5.0,11.0,18,0.00,,,0.00,,2013-01-23 02:03:00,
2013-01-22 19:12:00,39.0,-1.0,30.25,West,267,5.0,11.0,18,0.00,,,0.00,,2013-01-23 02:12:00,
2013-01-22 19:23:00,38.0,-1.0,30.24,WSW,253,5.0,10.0,19,0.00,,,0.00,,2013-01-23 02:23:00,
2013-01-22 19:33:00,37.0,-3.0,30.24,WNW,302,8.0,12.0,18,0.00,,,0.00,,2013-01-23 02:33:00,
2013-01-22 19:42:00,37.0,-3.0,30.24,WNW,302,8.0,12.0,18,0.00,,,0.00,,2013-01-23 02:42:00,
2013-01-22 19:53:00,39.0,-2.0,30.25,NW,313,12.0,17.0,17,0.00,,,0.00,,2013-01-23 02:53:00,
2013-01-22 20:03:00,39.0,-2.0,30.26,West,271,10.0,21.0,17,0.00,,,0.00,,2013-01-23 03:03:00,
2013-01-22 20:12:00,39.0,-2.0,30.26,West,271,10.0,21.0,17,0.00,,,0.00,,2013-01-23 03:12:00,
2013-01-22 20:23:00,39.0,-3.0,30.26,SW,221,6.0,14.0,16,0.00,,,0.00,,2013-01-23 03:23:00,
2013-01-22 20:32:00,38.0,-4.0,30.27,West,270,5.0,12.0,16,0.00,,,0.00,,2013-01-23 03:32:00,
2013-01-22 20:42:00,38.0,-4.0,30.27,West,270,5.0,12.0,16,0.00,,,0.00,,2013-01-23 03:42:00,
2013-01-22 20:53:00,38.0,-4.0,30.27,SW,215,5.0,13.0,16,0.00,,,0.00,,2013-01-23 03:53:00,
2013-01-22 21:03:00,38.0,-4.0,30.27,NNW,330,3.0,11.0,16,0.00,,,0.00,,2013-01-23 04:03:00,
2013-01-22 21:12:00,38.0,-4.0,30.27,NNW,330,3.0,11.0,16,0.00,,,0.00,,2013-01-23 04:12:00,
2013-01-22 21:22:00,38.0,-4.0,30.27,SW,234,3.0,5.0,16,0.00,,,0.00,,2013-01-23 04:22:00,
2013-01-22 21:32:00,38.0,-4.0,30.27,SE,134,0.0,5.0,16,0.00,,,0.00,,2013-01-23 04:32:00,
2013-01-22 21:43:00,38.0,-4.0,30.27,SE,134,0.0,5.0,16,0.00,,,0.00,,2013-01-23 04:43:00,
2013-01-22 21:53:00,38.0,-5.0,30.24,SSE,165,3.0,14.0,15,0.00,,,0.00,,2013-01-23 04:53:00,
2013-01-22 22:03:00,39.0,-5.0,30.24,SW,218,7.0,13.0,15,0.00,,,0.00,,2013-01-23 05:03:00,
2013-01-22 22:12:00,39.0,-5.0,30.24,SW,218,7.0,13.0,15,0.00,,,0.00,,2013-01-23 05:12:00,
2013-01-22 22:22:00,39.0,-5.0,30.24,South,188,12.0,24.0,15,0.00,,,0.00,,2013-01-23 05:22:00,
2013-01-22 22:33:00,39.0,-5.0,30.25,SSW,194,11.0,20.0,15,0.00,,,0.00,,2013-01-23 05:33:00,
2013-01-22 22:43:00,39.0,-5.0,30.25,SSW,194,11.0,20.0,15,0.00,,,0.00,,2013-01-23 05:43:00,
2013-01-22 22:53:00,38.0,-4.0,30.25,SSW,206,10.0,27.0,16,0.00,,,0.00,,2013-01-23 05:53:00,
2013-01-22 23:02:00,38.0,-3.0,30.26,WSW,246,11.0,21.0,17,0.00,,,0.00,,2013-01-23 06:02:00,
2013-01-22 23:12:00,38.0,-3.0,30.26,WSW,246,11.0,21.0,17,0.00,,,0.00,,2013-01-23 06:12:00,
2013-01-22 23:22:00,38.0,-3.0,30.27,SSW,212,10.0,18.0,17,0.00,,,0.00,,2013-01-23 06:22:00,
2013-01-22 23:32:00,38.0,-4.0,30.28,WSW,242,10.0,18.0,16,0.00,,,0.00,,2013-01-23 06:32:00,
2013-01-22 23:42:00,38.0,-4.0,30.28,WSW,242,10.0,18.0,16,0.00,,,0.00,,2013-01-23 06:42:00,
2013-01-22 23:53:00,38.0,-4.0,30.28,WSW,248,8.0,15.0,16,0.00,,,0.00,,2013-01-23 06:53:00,